sensor_id;sensor_type;location;lat;lon;timestamp;P1;durP1;ratioP1;P2;durP2;ratioP2
15356;SDS011;7778;48.792;9.260;2023-07-28T00:01:21;3.25;;;2.13;;
15356;SDS011;7778;48.792;9.260;2023-07-28T00:04:07;4.03;;;2.10;;
15356;SDS011;7778;48.792;9.260;2023-07-28T00:06:54;4.68;;;2.25;;
15356;SDS011;7778;48.792;9.260;2023-07-28T00:09:39;2.70;;;2.28;;
15356;SDS011;7778;48.792;9.260;2023-07-28T00:12:25;2.95;;;2.17;;
15356;SDS011;7778;48.792;9.260;2023-07-28T00:15:11;5.97;;;2.63;;
15356;SDS011;7778;48.792;9.260;2023-07-28T00:17:58;4.13;;;2.55;;
15356;SDS011;7778;48.792;9.260;2023-07-28T00:20:45;2.72;;;2.30;;
15356;SDS011;7778;48.792;9.260;2023-07-28T00:23:31;3.55;;;2.20;;
15356;SDS011;7778;48.792;9.260;2023-07-28T00:26:16;4.38;;;2.50;;
15356;SDS011;7778;48.792;9.260;2023-07-28T00:29:02;2.45;;;1.85;;
15356;SDS011;7778;48.792;9.260;2023-07-28T00:31:49;3.10;;;2.08;;
15356;SDS011;7778;48.792;9.260;2023-07-28T00:34:38;3.83;;;2.30;;
15356;SDS011;7778;48.792;9.260;2023-07-28T00:37:24;3.30;;;1.90;;
15356;SDS011;7778;48.792;9.260;2023-07-28T00:40:10;4.45;;;2.20;;
15356;SDS011;7778;48.792;9.260;2023-07-28T00:42:57;2.38;;;1.85;;
15356;SDS011;7778;48.792;9.260;2023-07-28T00:45:42;6.82;;;2.47;;
15356;SDS011;7778;48.792;9.260;2023-07-28T00:48:28;2.60;;;2.30;;
15356;SDS011;7778;48.792;9.260;2023-07-28T00:51:16;2.28;;;2.05;;
15356;SDS011;7778;48.792;9.260;2023-07-28T00:54:02;2.55;;;2.13;;
15356;SDS011;7778;48.792;9.260;2023-07-28T00:56:49;3.67;;;2.17;;
15356;SDS011;7778;48.792;9.260;2023-07-28T00:59:34;3.08;;;1.92;;
15356;SDS011;7778;48.792;9.260;2023-07-28T01:02:20;3.17;;;2.10;;
15356;SDS011;7778;48.792;9.260;2023-07-28T01:05:06;3.42;;;1.85;;
15356;SDS011;7778;48.792;9.260;2023-07-28T01:07:57;2.65;;;2.20;;
15356;SDS011;7778;48.792;9.260;2023-07-28T01:10:48;3.55;;;2.20;;
15356;SDS011;7778;48.792;9.260;2023-07-28T01:13:34;4.35;;;1.83;;
15356;SDS011;7778;48.792;9.260;2023-07-28T01:16:20;3.83;;;1.98;;
15356;SDS011;7778;48.792;9.260;2023-07-28T01:19:06;2.95;;;1.95;;
15356;SDS011;7778;48.792;9.260;2023-07-28T01:21:53;3.83;;;2.25;;
15356;SDS011;7778;48.792;9.260;2023-07-28T01:25:10;3.00;;;1.92;;
15356;SDS011;7778;48.792;9.260;2023-07-28T01:28:05;2.85;;;2.00;;
15356;SDS011;7778;48.792;9.260;2023-07-28T01:30:51;2.33;;;1.90;;
15356;SDS011;7778;48.792;9.260;2023-07-28T01:33:37;3.83;;;2.28;;
15356;SDS011;7778;48.792;9.260;2023-07-28T01:36:22;3.20;;;2.15;;
15356;SDS011;7778;48.792;9.260;2023-07-28T01:39:08;3.20;;;2.15;;
15356;SDS011;7778;48.792;9.260;2023-07-28T01:41:54;2.10;;;1.90;;
15356;SDS011;7778;48.792;9.260;2023-07-28T01:44:41;2.63;;;1.98;;
15356;SDS011;7778;48.792;9.260;2023-07-28T01:47:27;2.45;;;2.00;;
15356;SDS011;7778;48.792;9.260;2023-07-28T01:50:13;3.40;;;2.50;;
15356;SDS011;7778;48.792;9.260;2023-07-28T01:52:58;2.67;;;2.08;;
15356;SDS011;7778;48.792;9.260;2023-07-28T01:55:44;2.00;;;1.80;;
15356;SDS011;7778;48.792;9.260;2023-07-28T01:58:30;2.90;;;1.73;;
15356;SDS011;7778;48.792;9.260;2023-07-28T02:01:17;2.53;;;1.70;;
15356;SDS011;7778;48.792;9.260;2023-07-28T02:04:03;3.65;;;2.22;;
15356;SDS011;7778;48.792;9.260;2023-07-28T02:06:49;4.13;;;2.30;;
15356;SDS011;7778;48.792;9.260;2023-07-28T02:09:34;2.97;;;2.10;;
15356;SDS011;7778;48.792;9.260;2023-07-28T02:12:20;2.85;;;2.10;;
15356;SDS011;7778;48.792;9.260;2023-07-28T02:15:06;5.38;;;2.15;;
15356;SDS011;7778;48.792;9.260;2023-07-28T02:17:54;3.15;;;2.25;;
15356;SDS011;7778;48.792;9.260;2023-07-28T02:20:39;3.00;;;1.83;;
15356;SDS011;7778;48.792;9.260;2023-07-28T02:23:25;2.55;;;1.83;;
15356;SDS011;7778;48.792;9.260;2023-07-28T02:26:11;3.90;;;2.30;;
15356;SDS011;7778;48.792;9.260;2023-07-28T02:28:56;2.45;;;1.50;;
15356;SDS011;7778;48.792;9.260;2023-07-28T02:31:42;3.30;;;2.10;;
15356;SDS011;7778;48.792;9.260;2023-07-28T02:37:31;4.88;;;2.20;;
15356;SDS011;7778;48.792;9.260;2023-07-28T02:40:17;5.95;;;2.33;;
15356;SDS011;7778;48.792;9.260;2023-07-28T02:43:03;2.15;;;1.95;;
15356;SDS011;7778;48.792;9.260;2023-07-28T02:45:48;5.30;;;2.20;;
15356;SDS011;7778;48.792;9.260;2023-07-28T02:48:39;4.38;;;2.50;;
15356;SDS011;7778;48.792;9.260;2023-07-28T02:51:26;3.15;;;2.03;;
15356;SDS011;7778;48.792;9.260;2023-07-28T02:54:12;6.78;;;2.35;;
15356;SDS011;7778;48.792;9.260;2023-07-28T02:56:57;4.30;;;2.40;;
15356;SDS011;7778;48.792;9.260;2023-07-28T02:59:43;3.72;;;2.30;;
15356;SDS011;7778;48.792;9.260;2023-07-28T03:02:29;4.20;;;2.58;;
15356;SDS011;7778;48.792;9.260;2023-07-28T03:05:14;3.20;;;2.17;;
15356;SDS011;7778;48.792;9.260;2023-07-28T03:08:01;3.70;;;2.13;;
15356;SDS011;7778;48.792;9.260;2023-07-28T03:10:47;2.80;;;2.20;;
15356;SDS011;7778;48.792;9.260;2023-07-28T03:13:33;6.43;;;2.58;;
15356;SDS011;7778;48.792;9.260;2023-07-28T03:16:19;3.83;;;2.40;;
15356;SDS011;7778;48.792;9.260;2023-07-28T03:19:04;4.00;;;2.60;;
15356;SDS011;7778;48.792;9.260;2023-07-28T03:21:50;5.47;;;2.40;;
15356;SDS011;7778;48.792;9.260;2023-07-28T03:24:37;5.22;;;2.35;;
15356;SDS011;7778;48.792;9.260;2023-07-28T03:27:22;3.95;;;2.60;;
15356;SDS011;7778;48.792;9.260;2023-07-28T03:30:08;2.92;;;2.33;;
15356;SDS011;7778;48.792;9.260;2023-07-28T03:32:55;2.50;;;2.30;;
15356;SDS011;7778;48.792;9.260;2023-07-28T03:35:40;3.72;;;2.40;;
15356;SDS011;7778;48.792;9.260;2023-07-28T03:38:26;3.65;;;2.42;;
15356;SDS011;7778;48.792;9.260;2023-07-28T03:41:13;5.45;;;2.58;;
15356;SDS011;7778;48.792;9.260;2023-07-28T03:43:59;6.65;;;2.53;;
15356;SDS011;7778;48.792;9.260;2023-07-28T03:46:44;4.30;;;2.15;;
15356;SDS011;7778;48.792;9.260;2023-07-28T03:49:30;4.20;;;2.70;;
15356;SDS011;7778;48.792;9.260;2023-07-28T03:52:16;3.15;;;2.38;;
15356;SDS011;7778;48.792;9.260;2023-07-28T03:55:01;5.60;;;2.78;;
15356;SDS011;7778;48.792;9.260;2023-07-28T03:57:49;5.50;;;2.72;;
15356;SDS011;7778;48.792;9.260;2023-07-28T04:00:34;6.15;;;2.80;;
15356;SDS011;7778;48.792;9.260;2023-07-28T04:03:20;4.05;;;2.30;;
15356;SDS011;7778;48.792;9.260;2023-07-28T04:08:54;6.47;;;2.75;;
15356;SDS011;7778;48.792;9.260;2023-07-28T04:11:40;5.30;;;2.70;;
15356;SDS011;7778;48.792;9.260;2023-07-28T04:14:27;3.85;;;2.58;;
15356;SDS011;7778;48.792;9.260;2023-07-28T04:17:12;4.25;;;2.70;;
15356;SDS011;7778;48.792;9.260;2023-07-28T04:20:01;3.97;;;2.72;;
15356;SDS011;7778;48.792;9.260;2023-07-28T04:22:46;3.40;;;2.65;;
15356;SDS011;7778;48.792;9.260;2023-07-28T04:25:32;4.70;;;2.55;;
15356;SDS011;7778;48.792;9.260;2023-07-28T04:28:17;3.50;;;2.40;;
15356;SDS011;7778;48.792;9.260;2023-07-28T04:31:05;6.18;;;2.90;;
15356;SDS011;7778;48.792;9.260;2023-07-28T04:33:51;3.92;;;2.47;;
15356;SDS011;7778;48.792;9.260;2023-07-28T04:36:36;6.32;;;2.50;;
15356;SDS011;7778;48.792;9.260;2023-07-28T04:39:25;4.25;;;2.85;;
15356;SDS011;7778;48.792;9.260;2023-07-28T04:42:14;4.22;;;2.53;;
15356;SDS011;7778;48.792;9.260;2023-07-28T04:44:59;3.80;;;2.20;;
15356;SDS011;7778;48.792;9.260;2023-07-28T04:47:49;4.88;;;3.05;;
15356;SDS011;7778;48.792;9.260;2023-07-28T04:50:34;4.45;;;2.45;;
15356;SDS011;7778;48.792;9.260;2023-07-28T04:53:20;3.47;;;2.42;;
15356;SDS011;7778;48.792;9.260;2023-07-28T04:56:06;4.38;;;2.38;;
15356;SDS011;7778;48.792;9.260;2023-07-28T04:58:51;3.42;;;2.35;;
15356;SDS011;7778;48.792;9.260;2023-07-28T05:01:37;2.78;;;2.38;;
15356;SDS011;7778;48.792;9.260;2023-07-28T05:04:23;3.30;;;2.28;;
15356;SDS011;7778;48.792;9.260;2023-07-28T05:07:09;2.55;;;2.17;;
15356;SDS011;7778;48.792;9.260;2023-07-28T05:09:55;5.03;;;2.40;;
15356;SDS011;7778;48.792;9.260;2023-07-28T05:12:40;4.32;;;2.63;;
15356;SDS011;7778;48.792;9.260;2023-07-28T05:15:26;4.28;;;2.70;;
15356;SDS011;7778;48.792;9.260;2023-07-28T05:18:11;3.85;;;2.30;;
15356;SDS011;7778;48.792;9.260;2023-07-28T05:20:58;4.03;;;2.60;;
15356;SDS011;7778;48.792;9.260;2023-07-28T05:23:43;8.02;;;3.00;;
15356;SDS011;7778;48.792;9.260;2023-07-28T05:26:29;3.53;;;2.50;;
15356;SDS011;7778;48.792;9.260;2023-07-28T05:29:15;4.60;;;2.97;;
15356;SDS011;7778;48.792;9.260;2023-07-28T05:32:00;4.30;;;2.95;;
15356;SDS011;7778;48.792;9.260;2023-07-28T05:34:47;5.15;;;3.05;;
15356;SDS011;7778;48.792;9.260;2023-07-28T05:37:34;4.30;;;2.90;;
15356;SDS011;7778;48.792;9.260;2023-07-28T05:40:20;4.07;;;2.47;;
15356;SDS011;7778;48.792;9.260;2023-07-28T05:43:05;3.63;;;2.40;;
15356;SDS011;7778;48.792;9.260;2023-07-28T05:45:51;5.00;;;3.13;;
15356;SDS011;7778;48.792;9.260;2023-07-28T05:48:37;4.10;;;2.28;;
15356;SDS011;7778;48.792;9.260;2023-07-28T05:51:22;5.63;;;2.42;;
15356;SDS011;7778;48.792;9.260;2023-07-28T05:54:09;4.78;;;2.80;;
15356;SDS011;7778;48.792;9.260;2023-07-28T05:56:58;4.43;;;2.45;;
15356;SDS011;7778;48.792;9.260;2023-07-28T05:59:44;4.65;;;2.50;;
15356;SDS011;7778;48.792;9.260;2023-07-28T06:02:30;4.72;;;2.83;;
15356;SDS011;7778;48.792;9.260;2023-07-28T06:05:16;4.75;;;2.95;;
15356;SDS011;7778;48.792;9.260;2023-07-28T06:08:01;6.60;;;3.40;;
15356;SDS011;7778;48.792;9.260;2023-07-28T06:10:48;5.90;;;3.58;;
15356;SDS011;7778;48.792;9.260;2023-07-28T06:13:34;9.77;;;3.50;;
15356;SDS011;7778;48.792;9.260;2023-07-28T06:16:20;5.82;;;3.13;;
15356;SDS011;7778;48.792;9.260;2023-07-28T06:19:05;5.97;;;3.58;;
15356;SDS011;7778;48.792;9.260;2023-07-28T06:21:52;5.05;;;3.22;;
15356;SDS011;7778;48.792;9.260;2023-07-28T06:24:38;6.65;;;3.85;;
15356;SDS011;7778;48.792;9.260;2023-07-28T06:27:25;6.35;;;3.47;;
15356;SDS011;7778;48.792;9.260;2023-07-28T06:30:11;4.88;;;3.47;;
15356;SDS011;7778;48.792;9.260;2023-07-28T06:32:57;6.00;;;3.38;;
15356;SDS011;7778;48.792;9.260;2023-07-28T06:35:42;4.45;;;3.30;;
15356;SDS011;7778;48.792;9.260;2023-07-28T06:38:28;5.90;;;3.40;;
15356;SDS011;7778;48.792;9.260;2023-07-28T06:41:13;7.22;;;3.30;;
15356;SDS011;7778;48.792;9.260;2023-07-28T06:44:00;6.22;;;3.22;;
15356;SDS011;7778;48.792;9.260;2023-07-28T06:46:46;3.55;;;2.88;;
15356;SDS011;7778;48.792;9.260;2023-07-28T06:49:32;4.57;;;2.90;;
15356;SDS011;7778;48.792;9.260;2023-07-28T06:52:20;5.35;;;3.08;;
15356;SDS011;7778;48.792;9.260;2023-07-28T06:55:06;5.43;;;3.38;;
15356;SDS011;7778;48.792;9.260;2023-07-28T06:57:53;4.65;;;2.97;;
15356;SDS011;7778;48.792;9.260;2023-07-28T07:00:40;4.63;;;3.08;;
15356;SDS011;7778;48.792;9.260;2023-07-28T07:03:25;6.97;;;3.30;;
15356;SDS011;7778;48.792;9.260;2023-07-28T07:06:11;5.82;;;2.80;;
15356;SDS011;7778;48.792;9.260;2023-07-28T07:08:57;5.50;;;3.17;;
15356;SDS011;7778;48.792;9.260;2023-07-28T07:11:42;6.07;;;3.10;;
15356;SDS011;7778;48.792;9.260;2023-07-28T07:14:28;3.15;;;2.60;;
15356;SDS011;7778;48.792;9.260;2023-07-28T07:17:15;5.15;;;3.33;;
15356;SDS011;7778;48.792;9.260;2023-07-28T07:20:01;5.28;;;2.92;;
15356;SDS011;7778;48.792;9.260;2023-07-28T07:22:46;4.88;;;3.35;;
15356;SDS011;7778;48.792;9.260;2023-07-28T07:25:32;6.20;;;3.13;;
15356;SDS011;7778;48.792;9.260;2023-07-28T07:28:17;5.38;;;2.60;;
15356;SDS011;7778;48.792;9.260;2023-07-28T07:31:03;6.20;;;2.92;;
15356;SDS011;7778;48.792;9.260;2023-07-28T07:33:50;4.72;;;3.33;;
15356;SDS011;7778;48.792;9.260;2023-07-28T07:36:36;5.35;;;3.30;;
15356;SDS011;7778;48.792;9.260;2023-07-28T07:39:23;5.57;;;3.38;;
15356;SDS011;7778;48.792;9.260;2023-07-28T07:42:09;5.68;;;3.30;;
15356;SDS011;7778;48.792;9.260;2023-07-28T07:44:57;5.15;;;3.65;;
15356;SDS011;7778;48.792;9.260;2023-07-28T07:47:43;5.03;;;3.45;;
15356;SDS011;7778;48.792;9.260;2023-07-28T07:50:29;5.20;;;3.35;;
15356;SDS011;7778;48.792;9.260;2023-07-28T07:53:15;6.40;;;3.30;;
15356;SDS011;7778;48.792;9.260;2023-07-28T07:56:01;5.25;;;2.97;;
15356;SDS011;7778;48.792;9.260;2023-07-28T07:58:47;6.32;;;4.15;;
15356;SDS011;7778;48.792;9.260;2023-07-28T08:01:32;5.45;;;3.20;;
15356;SDS011;7778;48.792;9.260;2023-07-28T08:04:18;7.22;;;3.53;;
15356;SDS011;7778;48.792;9.260;2023-07-28T08:07:05;4.53;;;2.92;;
15356;SDS011;7778;48.792;9.260;2023-07-28T08:09:51;4.70;;;2.90;;
15356;SDS011;7778;48.792;9.260;2023-07-28T08:12:37;2.90;;;2.55;;
15356;SDS011;7778;48.792;9.260;2023-07-28T08:15:23;5.32;;;3.20;;
15356;SDS011;7778;48.792;9.260;2023-07-28T08:18:08;4.47;;;2.75;;
15356;SDS011;7778;48.792;9.260;2023-07-28T08:20:55;2.92;;;2.47;;
15356;SDS011;7778;48.792;9.260;2023-07-28T08:23:42;5.00;;;2.30;;
15356;SDS011;7778;48.792;9.260;2023-07-28T08:26:27;3.63;;;2.40;;
15356;SDS011;7778;48.792;9.260;2023-07-28T08:29:13;4.40;;;2.50;;
15356;SDS011;7778;48.792;9.260;2023-07-28T08:31:58;7.72;;;2.88;;
15356;SDS011;7778;48.792;9.260;2023-07-28T08:34:44;4.80;;;2.92;;
15356;SDS011;7778;48.792;9.260;2023-07-28T08:37:30;5.80;;;3.15;;
15356;SDS011;7778;48.792;9.260;2023-07-28T08:40:17;3.92;;;2.85;;
15356;SDS011;7778;48.792;9.260;2023-07-28T08:43:04;7.85;;;3.60;;
15356;SDS011;7778;48.792;9.260;2023-07-28T08:45:49;5.72;;;2.92;;
15356;SDS011;7778;48.792;9.260;2023-07-28T08:48:37;4.70;;;3.13;;
15356;SDS011;7778;48.792;9.260;2023-07-28T08:51:23;6.82;;;3.80;;
15356;SDS011;7778;48.792;9.260;2023-07-28T08:54:08;5.15;;;3.63;;
15356;SDS011;7778;48.792;9.260;2023-07-28T08:56:56;4.72;;;3.72;;
15356;SDS011;7778;48.792;9.260;2023-07-28T08:59:42;6.82;;;3.50;;
15356;SDS011;7778;48.792;9.260;2023-07-28T09:02:30;6.70;;;3.70;;
15356;SDS011;7778;48.792;9.260;2023-07-28T09:05:19;5.80;;;3.80;;
15356;SDS011;7778;48.792;9.260;2023-07-28T09:08:08;7.45;;;4.07;;
15356;SDS011;7778;48.792;9.260;2023-07-28T09:10:54;5.70;;;2.90;;
15356;SDS011;7778;48.792;9.260;2023-07-28T09:13:41;5.55;;;3.25;;
15356;SDS011;7778;48.792;9.260;2023-07-28T09:16:27;10.98;;;3.30;;
15356;SDS011;7778;48.792;9.260;2023-07-28T09:19:13;5.97;;;3.55;;
15356;SDS011;7778;48.792;9.260;2023-07-28T09:21:59;6.57;;;3.70;;
15356;SDS011;7778;48.792;9.260;2023-07-28T09:24:46;6.70;;;3.83;;
15356;SDS011;7778;48.792;9.260;2023-07-28T09:27:33;6.38;;;3.80;;
15356;SDS011;7778;48.792;9.260;2023-07-28T09:30:20;5.97;;;3.47;;
15356;SDS011;7778;48.792;9.260;2023-07-28T09:33:07;6.28;;;3.30;;
15356;SDS011;7778;48.792;9.260;2023-07-28T09:35:52;3.72;;;2.97;;
15356;SDS011;7778;48.792;9.260;2023-07-28T09:38:38;5.20;;;3.17;;
15356;SDS011;7778;48.792;9.260;2023-07-28T09:41:25;5.47;;;2.97;;
15356;SDS011;7778;48.792;9.260;2023-07-28T09:44:14;6.28;;;3.05;;
15356;SDS011;7778;48.792;9.260;2023-07-28T09:47:02;4.85;;;3.22;;
15356;SDS011;7778;48.792;9.260;2023-07-28T09:49:49;4.28;;;2.70;;
15356;SDS011;7778;48.792;9.260;2023-07-28T09:52:39;2.80;;;2.40;;
15356;SDS011;7778;48.792;9.260;2023-07-28T09:55:30;5.35;;;3.30;;
15356;SDS011;7778;48.792;9.260;2023-07-28T09:58:19;6.97;;;4.10;;
15356;SDS011;7778;48.792;9.260;2023-07-28T10:01:09;9.75;;;3.72;;
15356;SDS011;7778;48.792;9.260;2023-07-28T10:03:58;5.03;;;3.42;;
15356;SDS011;7778;48.792;9.260;2023-07-28T10:06:45;5.85;;;3.00;;
15356;SDS011;7778;48.792;9.260;2023-07-28T10:09:31;5.47;;;3.15;;
15356;SDS011;7778;48.792;9.260;2023-07-28T10:12:18;2.38;;;2.17;;
15356;SDS011;7778;48.792;9.260;2023-07-28T10:15:12;3.03;;;2.30;;
15356;SDS011;7778;48.792;9.260;2023-07-28T10:18:00;4.22;;;2.75;;
15356;SDS011;7778;48.792;9.260;2023-07-28T10:20:47;3.70;;;2.40;;
15356;SDS011;7778;48.792;9.260;2023-07-28T10:23:33;5.75;;;2.95;;
15356;SDS011;7778;48.792;9.260;2023-07-28T10:26:30;4.70;;;2.50;;
15356;SDS011;7778;48.792;9.260;2023-07-28T10:29:19;6.00;;;3.05;;
15356;SDS011;7778;48.792;9.260;2023-07-28T10:32:26;3.97;;;2.60;;
15356;SDS011;7778;48.792;9.260;2023-07-28T10:35:21;4.63;;;2.13;;
15356;SDS011;7778;48.792;9.260;2023-07-28T10:41:15;5.03;;;2.42;;
15356;SDS011;7778;48.792;9.260;2023-07-28T10:44:03;2.83;;;2.08;;
15356;SDS011;7778;48.792;9.260;2023-07-28T10:46:49;2.33;;;1.92;;
15356;SDS011;7778;48.792;9.260;2023-07-28T10:49:36;4.25;;;2.03;;
15356;SDS011;7778;48.792;9.260;2023-07-28T10:52:23;2.30;;;1.80;;
15356;SDS011;7778;48.792;9.260;2023-07-28T10:55:13;3.92;;;2.03;;
15356;SDS011;7778;48.792;9.260;2023-07-28T10:57:59;3.13;;;2.00;;
15356;SDS011;7778;48.792;9.260;2023-07-28T11:00:45;2.78;;;1.95;;
15356;SDS011;7778;48.792;9.260;2023-07-28T11:03:31;4.43;;;1.95;;
15356;SDS011;7778;48.792;9.260;2023-07-28T11:06:18;4.90;;;2.25;;
15356;SDS011;7778;48.792;9.260;2023-07-28T11:09:05;2.90;;;1.83;;
15356;SDS011;7778;48.792;9.260;2023-07-28T11:11:52;4.90;;;1.88;;
15356;SDS011;7778;48.792;9.260;2023-07-28T11:14:37;2.25;;;1.63;;
15356;SDS011;7778;48.792;9.260;2023-07-28T11:17:24;3.78;;;2.03;;
15356;SDS011;7778;48.792;9.260;2023-07-28T11:20:14;2.92;;;2.08;;
15356;SDS011;7778;48.792;9.260;2023-07-28T11:23:03;2.45;;;1.70;;
15356;SDS011;7778;48.792;9.260;2023-07-28T11:25:50;1.83;;;1.50;;
15356;SDS011;7778;48.792;9.260;2023-07-28T11:28:35;2.40;;;1.50;;
15356;SDS011;7778;48.792;9.260;2023-07-28T11:31:23;4.00;;;2.33;;
15356;SDS011;7778;48.792;9.260;2023-07-28T11:34:12;2.50;;;1.77;;
15356;SDS011;7778;48.792;9.260;2023-07-28T11:36:59;3.33;;;2.17;;
15356;SDS011;7778;48.792;9.260;2023-07-28T11:39:46;2.30;;;1.45;;
15356;SDS011;7778;48.792;9.260;2023-07-28T11:42:33;2.45;;;2.00;;
15356;SDS011;7778;48.792;9.260;2023-07-28T11:45:20;2.75;;;1.67;;
15356;SDS011;7778;48.792;9.260;2023-07-28T11:48:07;2.03;;;1.48;;
15356;SDS011;7778;48.792;9.260;2023-07-28T11:50:53;2.40;;;1.80;;
15356;SDS011;7778;48.792;9.260;2023-07-28T11:53:40;3.40;;;1.85;;
15356;SDS011;7778;48.792;9.260;2023-07-28T11:56:27;3.88;;;1.67;;
15356;SDS011;7778;48.792;9.260;2023-07-28T11:59:14;2.05;;;1.60;;
15356;SDS011;7778;48.792;9.260;2023-07-28T12:02:03;3.40;;;2.13;;
15356;SDS011;7778;48.792;9.260;2023-07-28T12:04:50;2.10;;;1.40;;
15356;SDS011;7778;48.792;9.260;2023-07-28T12:07:38;3.25;;;2.30;;
15356;SDS011;7778;48.792;9.260;2023-07-28T12:10:24;2.88;;;1.55;;
15356;SDS011;7778;48.792;9.260;2023-07-28T12:13:11;1.80;;;1.65;;
15356;SDS011;7778;48.792;9.260;2023-07-28T12:15:56;4.30;;;1.85;;
15356;SDS011;7778;48.792;9.260;2023-07-28T12:18:48;2.38;;;1.85;;
15356;SDS011;7778;48.792;9.260;2023-07-28T12:21:33;2.78;;;1.67;;
15356;SDS011;7778;48.792;9.260;2023-07-28T12:24:19;2.95;;;1.75;;
15356;SDS011;7778;48.792;9.260;2023-07-28T12:27:09;3.55;;;2.10;;
15356;SDS011;7778;48.792;9.260;2023-07-28T12:29:58;3.25;;;1.65;;
15356;SDS011;7778;48.792;9.260;2023-07-28T12:32:45;3.90;;;2.20;;
15356;SDS011;7778;48.792;9.260;2023-07-28T12:35:31;4.82;;;2.10;;
15356;SDS011;7778;48.792;9.260;2023-07-28T12:38:18;4.30;;;2.08;;
15356;SDS011;7778;48.792;9.260;2023-07-28T12:41:03;2.53;;;1.98;;
15356;SDS011;7778;48.792;9.260;2023-07-28T12:43:50;3.60;;;2.00;;
15356;SDS011;7778;48.792;9.260;2023-07-28T12:46:37;3.38;;;2.55;;
15356;SDS011;7778;48.792;9.260;2023-07-28T12:49:24;2.05;;;1.67;;
15356;SDS011;7778;48.792;9.260;2023-07-28T12:52:09;3.30;;;2.10;;
15356;SDS011;7778;48.792;9.260;2023-07-28T12:54:55;3.72;;;2.20;;
15356;SDS011;7778;48.792;9.260;2023-07-28T12:57:42;1.70;;;1.58;;
15356;SDS011;7778;48.792;9.260;2023-07-28T13:00:28;2.35;;;1.77;;
15356;SDS011;7778;48.792;9.260;2023-07-28T13:03:15;2.70;;;1.48;;
15356;SDS011;7778;48.792;9.260;2023-07-28T13:06:01;1.38;;;1.27;;
15356;SDS011;7778;48.792;9.260;2023-07-28T13:08:47;2.58;;;1.65;;
15356;SDS011;7778;48.792;9.260;2023-07-28T13:11:33;1.40;;;1.30;;
15356;SDS011;7778;48.792;9.260;2023-07-28T13:14:19;1.95;;;1.65;;
15356;SDS011;7778;48.792;9.260;2023-07-28T13:17:06;1.40;;;1.25;;
15356;SDS011;7778;48.792;9.260;2023-07-28T13:19:53;2.17;;;1.52;;
15356;SDS011;7778;48.792;9.260;2023-07-28T13:22:40;2.05;;;1.63;;
15356;SDS011;7778;48.792;9.260;2023-07-28T13:25:26;1.92;;;1.70;;
15356;SDS011;7778;48.792;9.260;2023-07-28T13:28:12;1.92;;;1.77;;
15356;SDS011;7778;48.792;9.260;2023-07-28T13:30:58;1.80;;;1.65;;
15356;SDS011;7778;48.792;9.260;2023-07-28T13:33:46;2.45;;;1.73;;
15356;SDS011;7778;48.792;9.260;2023-07-28T13:36:36;2.28;;;1.65;;
15356;SDS011;7778;48.792;9.260;2023-07-28T13:39:22;2.25;;;1.88;;
15356;SDS011;7778;48.792;9.260;2023-07-28T13:42:08;2.42;;;1.90;;
15356;SDS011;7778;48.792;9.260;2023-07-28T13:44:55;2.20;;;1.70;;
15356;SDS011;7778;48.792;9.260;2023-07-28T13:47:41;1.83;;;1.58;;
15356;SDS011;7778;48.792;9.260;2023-07-28T13:50:26;3.20;;;2.00;;
15356;SDS011;7778;48.792;9.260;2023-07-28T13:53:13;3.22;;;2.20;;
15356;SDS011;7778;48.792;9.260;2023-07-28T13:56:02;3.92;;;2.05;;
15356;SDS011;7778;48.792;9.260;2023-07-28T13:58:49;3.38;;;2.20;;
15356;SDS011;7778;48.792;9.260;2023-07-28T14:01:34;8.50;;;2.75;;
15356;SDS011;7778;48.792;9.260;2023-07-28T14:04:42;4.20;;;2.33;;
15356;SDS011;7778;48.792;9.260;2023-07-28T14:07:27;7.28;;;2.60;;
15356;SDS011;7778;48.792;9.260;2023-07-28T14:10:14;5.20;;;2.42;;
15356;SDS011;7778;48.792;9.260;2023-07-28T14:13:00;4.38;;;2.63;;
15356;SDS011;7778;48.792;9.260;2023-07-28T14:15:46;5.75;;;2.85;;
15356;SDS011;7778;48.792;9.260;2023-07-28T14:18:32;4.95;;;2.30;;
15356;SDS011;7778;48.792;9.260;2023-07-28T14:21:17;4.72;;;2.88;;
15356;SDS011;7778;48.792;9.260;2023-07-28T14:24:03;5.97;;;2.80;;
15356;SDS011;7778;48.792;9.260;2023-07-28T14:26:51;3.97;;;2.75;;
15356;SDS011;7778;48.792;9.260;2023-07-28T14:29:36;5.88;;;3.08;;
15356;SDS011;7778;48.792;9.260;2023-07-28T14:32:22;3.17;;;2.63;;
15356;SDS011;7778;48.792;9.260;2023-07-28T14:35:07;5.20;;;3.13;;
15356;SDS011;7778;48.792;9.260;2023-07-28T14:37:53;5.88;;;2.72;;
15356;SDS011;7778;48.792;9.260;2023-07-28T14:40:38;3.63;;;2.80;;
15356;SDS011;7778;48.792;9.260;2023-07-28T14:43:26;6.72;;;3.50;;
15356;SDS011;7778;48.792;9.260;2023-07-28T14:46:11;4.45;;;2.97;;
15356;SDS011;7778;48.792;9.260;2023-07-28T14:48:57;7.60;;;3.08;;
15356;SDS011;7778;48.792;9.260;2023-07-28T14:51:43;5.82;;;2.60;;
15356;SDS011;7778;48.792;9.260;2023-07-28T14:54:28;6.82;;;2.58;;
15356;SDS011;7778;48.792;9.260;2023-07-28T14:57:14;5.25;;;3.10;;
15356;SDS011;7778;48.792;9.260;2023-07-28T15:00:01;9.13;;;3.45;;
15356;SDS011;7778;48.792;9.260;2023-07-28T15:02:47;5.40;;;3.25;;
15356;SDS011;7778;48.792;9.260;2023-07-28T15:05:33;5.25;;;2.88;;
15356;SDS011;7778;48.792;9.260;2023-07-28T15:08:18;5.82;;;3.72;;
15356;SDS011;7778;48.792;9.260;2023-07-28T15:11:04;7.57;;;3.45;;
15356;SDS011;7778;48.792;9.260;2023-07-28T15:13:49;4.60;;;2.90;;
15356;SDS011;7778;48.792;9.260;2023-07-28T15:16:37;4.75;;;3.00;;
15356;SDS011;7778;48.792;9.260;2023-07-28T15:19:22;4.15;;;2.60;;
15356;SDS011;7778;48.792;9.260;2023-07-28T15:22:08;6.65;;;3.15;;
15356;SDS011;7778;48.792;9.260;2023-07-28T15:24:53;6.97;;;3.15;;
15356;SDS011;7778;48.792;9.260;2023-07-28T15:27:39;3.97;;;3.10;;
15356;SDS011;7778;48.792;9.260;2023-07-28T15:30:26;5.65;;;2.90;;
15356;SDS011;7778;48.792;9.260;2023-07-28T15:33:15;5.53;;;3.20;;
15356;SDS011;7778;48.792;9.260;2023-07-28T15:36:01;3.85;;;2.70;;
15356;SDS011;7778;48.792;9.260;2023-07-28T15:38:46;5.68;;;3.40;;
15356;SDS011;7778;48.792;9.260;2023-07-28T15:41:32;6.03;;;3.80;;
15356;SDS011;7778;48.792;9.260;2023-07-28T15:44:17;4.55;;;3.13;;
15356;SDS011;7778;48.792;9.260;2023-07-28T15:47:03;5.95;;;3.47;;
15356;SDS011;7778;48.792;9.260;2023-07-28T15:49:51;4.15;;;3.05;;
15356;SDS011;7778;48.792;9.260;2023-07-28T15:52:37;7.80;;;3.22;;
15356;SDS011;7778;48.792;9.260;2023-07-28T15:55:23;5.50;;;2.72;;
15356;SDS011;7778;48.792;9.260;2023-07-28T15:58:08;4.18;;;3.15;;
15356;SDS011;7778;48.792;9.260;2023-07-28T16:00:57;4.32;;;2.80;;
15356;SDS011;7778;48.792;9.260;2023-07-28T16:03:43;4.28;;;3.17;;
15356;SDS011;7778;48.792;9.260;2023-07-28T16:06:29;7.78;;;3.28;;
15356;SDS011;7778;48.792;9.260;2023-07-28T16:09:15;4.28;;;3.10;;
15356;SDS011;7778;48.792;9.260;2023-07-28T16:12:00;4.18;;;2.67;;
15356;SDS011;7778;48.792;9.260;2023-07-28T16:14:46;5.05;;;3.25;;
15356;SDS011;7778;48.792;9.260;2023-07-28T16:17:32;4.95;;;2.80;;
15356;SDS011;7778;48.792;9.260;2023-07-28T16:20:17;5.75;;;3.50;;
15356;SDS011;7778;48.792;9.260;2023-07-28T16:23:05;5.93;;;3.30;;
15356;SDS011;7778;48.792;9.260;2023-07-28T16:25:50;6.50;;;3.97;;
15356;SDS011;7778;48.792;9.260;2023-07-28T16:28:36;4.75;;;3.03;;
15356;SDS011;7778;48.792;9.260;2023-07-28T16:31:21;6.38;;;3.00;;
15356;SDS011;7778;48.792;9.260;2023-07-28T16:34:07;6.15;;;3.70;;
15356;SDS011;7778;48.792;9.260;2023-07-28T16:36:52;4.07;;;2.72;;
15356;SDS011;7778;48.792;9.260;2023-07-28T16:39:39;5.82;;;3.08;;
15356;SDS011;7778;48.792;9.260;2023-07-28T16:42:25;5.32;;;3.38;;
15356;SDS011;7778;48.792;9.260;2023-07-28T16:45:10;6.65;;;3.22;;
15356;SDS011;7778;48.792;9.260;2023-07-28T16:47:56;4.75;;;3.15;;
15356;SDS011;7778;48.792;9.260;2023-07-28T16:50:42;4.90;;;3.00;;
15356;SDS011;7778;48.792;9.260;2023-07-28T16:53:27;5.22;;;3.30;;
15356;SDS011;7778;48.792;9.260;2023-07-28T16:56:14;3.88;;;2.67;;
15356;SDS011;7778;48.792;9.260;2023-07-28T16:58:59;5.45;;;3.65;;
15356;SDS011;7778;48.792;9.260;2023-07-28T17:01:45;4.63;;;2.83;;
15356;SDS011;7778;48.792;9.260;2023-07-28T17:04:30;6.63;;;3.38;;
15356;SDS011;7778;48.792;9.260;2023-07-28T17:07:16;6.40;;;3.60;;